createdAt,value
2016-04-28T00:00:52.325Z,989.22
2016-04-28T00:01:52.311Z,989.18
2016-04-28T00:02:52.548Z,989.19
2016-04-28T00:03:52.349Z,989.2
2016-04-28T00:04:52.305Z,989.18
2016-04-28T00:05:52.307Z,989.17
2016-04-28T00:06:52.309Z,989.19
2016-04-28T00:07:52.297Z,989.23
2016-04-28T00:08:52.518Z,989.17
2016-04-28T00:09:52.301Z,989.19
2016-04-28T00:10:52.757Z,989.24
2016-04-28T00:11:52.291Z,989.21
2016-04-28T00:12:52.294Z,989.17
2016-04-28T00:13:52.297Z,989.25
2016-04-28T00:14:52.284Z,989.26
2016-04-28T00:15:52.286Z,989.26
2016-04-28T00:16:52.305Z,989.24
2016-04-28T00:17:52.292Z,989.28
2016-04-28T00:18:52.295Z,989.2
2016-04-28T00:19:52.297Z,989.19
2016-04-28T00:20:52.300Z,989.18
2016-04-28T00:21:52.475Z,989.2
2016-04-28T00:22:52.509Z,989.22
2016-04-28T00:23:52.277Z,989.24
2016-04-28T00:24:52.280Z,989.24
2016-04-28T00:25:52.501Z,989.22
2016-04-28T00:27:52.272Z,989.24
2016-04-28T00:28:52.274Z,989.22
2016-04-28T00:29:52.262Z,989.31
2016-04-28T00:30:52.264Z,989.33
2016-04-28T00:31:52.267Z,989.34
2016-04-28T00:32:52.269Z,989.37
2016-04-28T00:33:52.257Z,989.41
2016-04-28T00:34:52.260Z,989.38
2016-04-28T00:35:52.262Z,989.37
2016-04-28T00:36:52.265Z,989.38
2016-04-28T00:37:52.252Z,989.43
2016-04-28T00:38:52.271Z,989.43
2016-04-28T00:39:52.257Z,989.41
2016-04-28T00:40:52.244Z,989.45
2016-04-28T00:41:52.246Z,989.43
2016-04-28T00:42:52.235Z,989.49
2016-04-28T00:43:52.252Z,989.51
2016-04-28T00:44:52.240Z,989.5
2016-04-28T00:45:52.242Z,989.56
2016-04-28T00:46:52.260Z,989.52
2016-04-28T00:47:52.279Z,989.53
2016-04-28T00:48:52.234Z,989.54
2016-04-28T00:49:52.237Z,989.59
2016-04-28T00:50:52.240Z,989.61
2016-04-28T00:51:52.274Z,989.61
2016-04-28T00:52:52.433Z,989.6
2016-04-28T00:53:52.233Z,989.62
2016-04-28T00:54:52.220Z,989.61
2016-04-28T00:55:52.222Z,989.57
2016-04-28T00:56:52.241Z,989.63
2016-04-28T00:58:52.214Z,989.61
2016-04-28T00:59:52.233Z,989.65
2016-04-28T01:00:52.220Z,989.63
2016-04-28T01:01:52.222Z,989.58
2016-04-28T01:02:52.225Z,989.6
2016-04-28T01:04:52.419Z,989.66
2016-04-28T01:05:52.218Z,989.68
2016-04-28T01:06:52.221Z,989.69
2016-04-28T01:07:52.207Z,989.68
2016-04-28T01:08:52.210Z,989.72
2016-04-28T01:09:52.213Z,989.75
2016-04-28T01:10:53.028Z,989.72
2016-04-28T01:11:52.202Z,989.74
2016-04-28T01:12:52.221Z,989.77
2016-04-28T01:13:52.240Z,989.75
2016-04-28T01:14:52.210Z,989.76
2016-04-28T01:15:52.213Z,989.74
2016-04-28T01:16:52.201Z,989.74
2016-04-28T01:17:52.204Z,989.76
2016-04-28T01:18:52.190Z,989.76
2016-04-28T01:19:52.428Z,989.7
2016-04-28T01:20:52.398Z,989.78
2016-04-28T01:21:52.198Z,989.77
2016-04-28T01:22:52.639Z,989.83
2016-04-28T01:23:52.391Z,989.79
2016-04-28T01:24:52.206Z,989.81
2016-04-28T01:26:52.181Z,989.86
2016-04-28T01:27:52.183Z,989.81
2016-04-28T01:28:52.202Z,989.87
2016-04-28T01:29:52.189Z,989.9
2016-04-28T01:30:52.176Z,989.92
2016-04-28T01:31:52.194Z,989.85
2016-04-28T01:32:52.180Z,989.87
2016-04-28T01:33:52.183Z,989.87
2016-04-28T01:34:52.171Z,989.88
2016-04-28T01:35:52.377Z,989.91
2016-04-28T01:36:52.160Z,989.89
2016-04-28T01:37:52.195Z,989.84
2016-04-28T01:38:52.166Z,989.85
2016-04-28T01:39:52.169Z,989.85
2016-04-28T01:41:52.158Z,989.87
2016-04-28T01:42:52.161Z,989.9
2016-04-28T01:43:52.164Z,989.87
2016-04-28T01:44:52.166Z,989.9
2016-04-28T01:45:52.153Z,989.88
2016-04-28T01:46:52.172Z,989.88
2016-04-28T01:47:52.159Z,989.9
2016-04-28T01:48:52.162Z,989.92
2016-04-28T01:49:52.179Z,989.94
2016-04-28T01:50:52.152Z,989.92
2016-04-28T01:51:52.154Z,989.93
2016-04-28T01:52:52.156Z,989.91
2016-04-28T01:53:52.145Z,989.94
2016-04-28T01:54:52.397Z,989.93
2016-04-28T01:55:52.321Z,989.93
2016-04-28T01:56:52.698Z,989.92
2016-04-28T01:57:52.139Z,989.92
2016-04-28T01:58:52.157Z,989.94
2016-04-28T01:59:52.161Z,989.93
2016-04-28T02:00:52.147Z,989.97
2016-04-28T02:01:52.602Z,989.97
2016-04-28T02:02:52.137Z,989.92
2016-04-28T02:03:52.155Z,989.99
2016-04-28T02:04:52.142Z,989.99
2016-04-28T02:05:52.144Z,989.98
2016-04-28T02:06:52.163Z,990.01
2016-04-28T02:07:52.135Z,989.99
2016-04-28T02:08:52.138Z,990.03
2016-04-28T02:09:52.327Z,990.06
2016-04-28T02:10:52.127Z,990.11
2016-04-28T02:11:52.146Z,990.07
2016-04-28T02:12:52.132Z,990.1
2016-04-28T02:13:52.338Z,990.08
2016-04-28T02:14:52.137Z,990.08
2016-04-28T02:15:52.344Z,990.08
2016-04-28T02:16:52.127Z,990.12
2016-04-28T02:17:52.130Z,990.09
2016-04-28T02:18:52.352Z,990.1
2016-04-28T02:19:52.354Z,990.1
2016-04-28T02:20:52.123Z,990.08
2016-04-28T02:21:52.109Z,990.09
2016-04-28T02:22:52.118Z,990.1
2016-04-28T02:23:52.121Z,990.15
2016-04-28T02:24:52.124Z,990.14
2016-04-28T02:25:52.110Z,990.14
2016-04-28T02:26:52.692Z,990.11
2016-04-28T02:27:52.147Z,990.11
2016-04-28T02:28:52.338Z,990.15
2016-04-28T02:29:52.121Z,990.15
2016-04-28T02:30:52.109Z,990.16
2016-04-28T02:31:52.142Z,990.18
2016-04-28T02:32:52.208Z,990.18
2016-04-28T02:33:52.101Z,990.19
2016-04-28T02:34:52.103Z,990.21
2016-04-28T02:35:52.107Z,990.19
2016-04-28T02:36:52.297Z,990.17
2016-04-28T02:37:52.112Z,990.19
2016-04-28T02:38:52.302Z,990.24
2016-04-28T02:39:52.710Z,990.22
2016-04-28T02:40:52.105Z,990.22
2016-04-28T02:41:52.561Z,990.24
2016-04-28T02:42:52.094Z,990.24
2016-04-28T02:43:52.705Z,990.24
2016-04-28T02:44:52.084Z,990.21
2016-04-28T02:45:52.258Z,990.23
2016-04-28T02:47:52.091Z,990.23
2016-04-28T02:48:52.080Z,990.24
2016-04-28T02:49:52.082Z,990.18
2016-04-28T02:50:52.084Z,990.19
2016-04-28T02:51:52.102Z,990.18
2016-04-28T02:52:52.073Z,990.27
2016-04-28T02:53:52.077Z,990.28
2016-04-28T02:54:52.095Z,990.27
2016-04-28T02:55:52.098Z,990.23
2016-04-28T02:56:52.069Z,990.28
2016-04-28T02:57:52.071Z,990.26
2016-04-28T02:58:52.059Z,990.27
2016-04-28T02:59:52.061Z,990.26
2016-04-28T03:00:52.049Z,990.28
2016-04-28T03:01:52.286Z,990.31
2016-04-28T03:02:52.054Z,990.29
2016-04-28T03:03:52.056Z,990.29
2016-04-28T03:04:52.059Z,990.3
2016-04-28T03:05:52.047Z,990.3
2016-04-28T03:06:52.080Z,990.31
2016-04-28T03:07:52.052Z,990.3
2016-04-28T03:08:52.039Z,990.32
2016-04-28T03:09:52.042Z,990.3
2016-04-28T03:10:52.044Z,990.28
2016-04-28T03:11:52.047Z,990.29
2016-04-28T03:12:52.034Z,990.3
2016-04-28T03:13:52.068Z,990.29
2016-04-28T03:14:52.039Z,990.32
2016-04-28T03:15:52.027Z,990.35
2016-04-28T03:16:52.029Z,990.37
2016-04-28T03:17:52.032Z,990.36
2016-04-28T03:18:52.019Z,990.35
2016-04-28T03:19:52.021Z,990.37
2016-04-28T03:20:52.008Z,990.38
2016-04-28T03:21:52.011Z,990.38
2016-04-28T03:22:52.014Z,990.41
2016-04-28T03:23:52.048Z,990.4
2016-04-28T03:24:52.051Z,990.42
2016-04-28T03:25:52.007Z,990.42
2016-04-28T03:26:52.009Z,990.41
2016-04-28T03:27:51.996Z,990.42
2016-04-28T03:28:51.998Z,990.42
2016-04-28T03:29:52.237Z,990.38
2016-04-28T03:30:51.989Z,990.39
2016-04-28T03:31:52.007Z,990.4
2016-04-28T03:32:51.978Z,990.37
2016-04-28T03:33:51.997Z,990.39
2016-04-28T03:34:52.000Z,990.4
2016-04-28T03:35:51.970Z,990.38
2016-04-28T03:36:51.973Z,990.41
2016-04-28T03:37:51.976Z,990.4
2016-04-28T03:38:51.995Z,990.37
2016-04-28T03:39:51.981Z,990.38
2016-04-28T03:40:51.968Z,990.34
2016-04-28T03:41:51.956Z,990.32
2016-04-28T03:42:51.974Z,990.33
2016-04-28T03:43:51.961Z,990.31
2016-04-28T03:44:52.182Z,990.3
2016-04-28T03:45:51.983Z,990.31
2016-04-28T03:46:51.953Z,990.27
2016-04-28T03:47:51.940Z,990.31
2016-04-28T03:48:51.944Z,990.31
2016-04-28T03:49:51.946Z,990.28
2016-04-28T03:50:51.933Z,990.33
2016-04-28T03:51:51.935Z,990.31
2016-04-28T03:52:51.938Z,990.34
2016-04-28T03:53:51.926Z,990.37
2016-04-28T03:54:51.928Z,990.34
2016-04-28T03:55:51.962Z,990.37
2016-04-28T03:56:52.434Z,990.38
2016-04-28T03:57:51.921Z,990.35
2016-04-28T03:58:51.923Z,990.36
2016-04-28T03:59:51.910Z,990.39
2016-04-28T04:00:51.929Z,990.36
2016-04-28T04:01:51.901Z,990.41
2016-04-28T04:02:51.903Z,990.4
2016-04-28T04:03:51.890Z,990.41
2016-04-28T04:04:51.909Z,990.46
2016-04-28T04:05:51.895Z,990.44
2016-04-28T04:06:52.132Z,990.48
2016-04-28T04:07:51.884Z,990.47
2016-04-28T04:08:51.887Z,990.5
2016-04-28T04:09:51.875Z,990.55
2016-04-28T04:10:51.878Z,990.55
2016-04-28T04:11:51.880Z,990.58
2016-04-28T04:12:51.883Z,990.54
2016-04-28T04:13:51.886Z,990.58
2016-04-28T04:14:51.888Z,990.6
2016-04-28T04:15:51.875Z,990.6
2016-04-28T04:16:51.878Z,990.6
2016-04-28T04:17:51.866Z,990.59
2016-04-28T04:18:51.852Z,990.61
2016-04-28T04:19:51.854Z,990.61
2016-04-28T04:20:51.858Z,990.65
2016-04-28T04:21:51.844Z,990.67
2016-04-28T04:22:51.847Z,990.73
2016-04-28T04:23:51.849Z,990.69
2016-04-28T04:24:51.853Z,990.72
2016-04-28T04:25:51.840Z,990.71
2016-04-28T04:26:51.843Z,990.74
2016-04-28T04:27:51.845Z,990.75
2016-04-28T04:28:51.832Z,990.79
2016-04-28T04:29:51.835Z,990.79
2016-04-28T04:30:51.837Z,990.83
2016-04-28T04:31:51.824Z,990.82
2016-04-28T04:32:51.827Z,990.86
2016-04-28T04:33:51.829Z,990.86
2016-04-28T04:34:51.832Z,990.86
2016-04-28T04:35:51.834Z,990.88
2016-04-28T04:36:51.838Z,990.93
2016-04-28T04:37:51.825Z,990.92
2016-04-28T04:38:51.828Z,990.96
2016-04-28T04:39:51.815Z,990.97
2016-04-28T04:40:51.802Z,990.94
2016-04-28T04:41:51.805Z,990.95
2016-04-28T04:42:51.807Z,990.95
2016-04-28T04:43:51.794Z,990.97
2016-04-28T04:44:51.797Z,990.99
2016-04-28T04:45:51.800Z,990.98
2016-04-28T04:46:51.786Z,991.03
2016-04-28T04:48:51.792Z,991.02
2016-04-28T04:49:51.794Z,991.04
2016-04-28T04:51:51.800Z,991.07
2016-04-28T04:52:51.788Z,991.08
2016-04-28T04:53:51.774Z,991.1
2016-04-28T04:54:51.777Z,991.12
2016-04-28T04:55:51.780Z,991.18
2016-04-28T04:56:51.782Z,991.17
2016-04-28T04:57:51.785Z,991.11
2016-04-28T04:58:51.803Z,991.19
2016-04-28T04:59:51.775Z,991.19
2016-04-28T05:00:51.777Z,991.17
2016-04-28T05:01:51.780Z,991.19
2016-04-28T05:02:51.798Z,991.15
2016-04-28T05:03:51.770Z,991.2
2016-04-28T05:04:51.773Z,991.21
2016-04-28T05:05:51.775Z,991.23
2016-04-28T05:06:51.762Z,991.23
2016-04-28T05:07:51.765Z,991.28
2016-04-28T05:08:51.768Z,991.26
2016-04-28T05:09:51.755Z,991.28
2016-04-28T05:10:51.772Z,991.27
2016-04-28T05:11:51.760Z,991.26
2016-04-28T05:12:51.748Z,991.32
2016-04-28T05:13:51.750Z,991.34
2016-04-28T05:14:51.752Z,991.31
2016-04-28T05:15:51.756Z,991.33
2016-04-28T05:16:51.742Z,991.31
2016-04-28T05:17:51.745Z,991.34
2016-04-28T05:18:51.747Z,991.39
2016-04-28T05:19:51.751Z,991.35
2016-04-28T05:20:51.752Z,991.38
2016-04-28T05:21:51.772Z,991.38
2016-04-28T05:22:51.743Z,991.36
2016-04-28T05:23:51.729Z,991.35
2016-04-28T05:24:51.732Z,991.4
2016-04-28T05:25:51.736Z,991.43
2016-04-28T05:26:51.738Z,991.39
2016-04-28T05:27:51.740Z,991.4
2016-04-28T05:28:51.728Z,991.44
2016-04-28T05:29:51.746Z,991.44
2016-04-28T05:30:51.733Z,991.47
2016-04-28T05:31:51.735Z,991.42
2016-04-28T05:32:51.739Z,991.49
2016-04-28T05:34:51.744Z,991.5
2016-04-28T05:35:51.746Z,991.47
2016-04-28T05:36:51.733Z,991.48
2016-04-28T05:37:51.720Z,991.49
2016-04-28T05:38:51.724Z,991.52
2016-04-28T05:39:51.726Z,991.53
2016-04-28T05:40:51.728Z,991.53
2016-04-28T05:41:51.731Z,991.54
2016-04-28T05:42:51.719Z,991.6
2016-04-28T05:43:51.722Z,991.62
2016-04-28T05:44:51.725Z,991.69
2016-04-28T05:45:51.711Z,991.62
2016-04-28T05:46:51.729Z,991.58
2016-04-28T05:47:51.717Z,991.62
2016-04-28T05:48:51.719Z,991.64
2016-04-28T05:49:51.722Z,991.64
2016-04-28T05:50:51.724Z,991.64
2016-04-28T05:51:51.712Z,991.68
2016-04-28T05:52:51.714Z,991.73
2016-04-28T05:53:51.952Z,991.77
2016-04-28T05:54:51.751Z,991.72
2016-04-28T05:55:51.722Z,991.77
2016-04-28T05:56:51.725Z,991.75
2016-04-28T05:57:51.712Z,991.8
2016-04-28T05:58:51.715Z,991.74
2016-04-28T05:59:51.718Z,991.74
2016-04-28T06:00:51.741Z,991.76
2016-04-28T06:01:51.754Z,991.79
2016-04-28T06:02:51.797Z,991.79
2016-04-28T06:03:51.840Z,991.82
2016-04-28T06:04:51.884Z,991.8
2016-04-28T06:05:51.923Z,991.87
2016-04-28T06:06:51.924Z,991.88
2016-04-28T06:07:51.974Z,991.88
2016-04-28T06:08:51.960Z,991.91
2016-04-28T06:09:51.976Z,991.92
2016-04-28T06:10:51.993Z,991.91
2016-04-28T06:11:53.110Z,991.9
2016-04-28T06:12:52.008Z,991.95
2016-04-28T06:13:52.015Z,992
2016-04-28T06:14:52.009Z,992.01
2016-04-28T06:16:52.660Z,992.02
2016-04-28T06:17:52.024Z,992.08
2016-04-28T06:18:52.013Z,992.08
2016-04-28T06:19:52.034Z,992.05
2016-04-28T06:20:52.022Z,992.07
2016-04-28T06:21:52.026Z,992.03
2016-04-28T06:22:52.029Z,992.03
2016-04-28T06:23:52.032Z,992.08
2016-04-28T06:24:52.036Z,992.05
2016-04-28T06:25:52.040Z,992.11
2016-04-28T06:26:52.042Z,992.13
2016-04-28T06:27:52.531Z,992.07
2016-04-28T06:28:52.048Z,992.16
2016-04-28T06:29:52.052Z,992.14
2016-04-28T06:30:52.071Z,992.14
2016-04-28T06:31:52.057Z,992.12
2016-04-28T06:32:52.046Z,992.17
2016-04-28T06:33:52.048Z,992.16
2016-04-28T06:34:52.051Z,992.14
2016-04-28T06:35:52.054Z,992.13
2016-04-28T06:36:52.056Z,992.19
2016-04-28T06:37:52.042Z,992.2
2016-04-28T06:38:52.061Z,992.18
2016-04-28T06:39:52.048Z,992.21
2016-04-28T06:40:52.254Z,992.2
2016-04-28T06:41:52.053Z,992.24
2016-04-28T06:42:52.056Z,992.14
2016-04-28T06:43:52.075Z,992.18
2016-04-28T06:44:52.061Z,992.13
2016-04-28T06:45:52.064Z,992.13
2016-04-28T06:46:52.067Z,992.14
2016-04-28T06:47:52.070Z,992.21
2016-04-28T06:48:52.072Z,992.16
2016-04-28T06:49:52.059Z,992.18
2016-04-28T06:50:52.077Z,992.17
2016-04-28T06:51:52.065Z,992.23
2016-04-28T06:52:52.083Z,992.24
2016-04-28T06:53:52.070Z,992.22
2016-04-28T06:54:52.072Z,992.25
2016-04-28T06:55:52.091Z,992.28
2016-04-28T06:56:52.078Z,992.27
2016-04-28T06:57:52.080Z,992.29
2016-04-28T06:58:52.099Z,992.35
2016-04-28T06:59:52.085Z,992.3
2016-04-28T07:00:52.088Z,992.31
2016-04-28T07:01:52.124Z,992.35
2016-04-28T07:02:52.094Z,992.21
2016-04-28T07:03:52.096Z,992.24
2016-04-28T07:04:52.303Z,992.22
2016-04-28T07:05:52.118Z,992.17
2016-04-28T07:06:52.104Z,992.17
2016-04-28T07:07:52.107Z,992.19
2016-04-28T07:08:52.157Z,992.22
2016-04-28T07:09:52.112Z,992.27
2016-04-28T07:10:52.116Z,992.24
2016-04-28T07:11:52.134Z,992.22
2016-04-28T07:12:52.137Z,992.17
2016-04-28T07:13:52.124Z,992.13
2016-04-28T07:14:52.142Z,992.15
2016-04-28T07:15:52.332Z,992.1
2016-04-28T07:16:52.131Z,992.09
2016-04-28T07:17:52.337Z,992.1
2016-04-28T07:18:52.356Z,992.11
2016-04-28T07:19:52.155Z,992.09
2016-04-28T07:20:52.142Z,992.07
2016-04-28T07:21:52.161Z,992.13
2016-04-28T07:22:52.571Z,992.08
2016-04-28T07:23:52.168Z,992.17
2016-04-28T07:24:52.154Z,992.13
2016-04-28T07:25:52.157Z,992.14
2016-04-28T07:26:52.176Z,992.18
2016-04-28T07:27:52.569Z,992.15
2016-04-28T07:28:52.211Z,992.16
2016-04-28T07:29:52.386Z,992.2
2016-04-28T07:30:52.186Z,992.23
2016-04-28T07:31:52.189Z,992.14
2016-04-28T07:32:52.223Z,992.22
2016-04-28T07:33:52.179Z,992.19
2016-04-28T07:34:52.181Z,992.29
2016-04-28T07:35:52.200Z,992.26
2016-04-28T07:36:52.202Z,992.26
2016-04-28T07:37:52.221Z,992.22
2016-04-28T07:38:52.207Z,992.25
2016-04-28T07:39:52.210Z,992.23
2016-04-28T07:40:52.213Z,992.18
2016-04-28T07:41:52.247Z,992.26
2016-04-28T07:42:52.562Z,992.27
2016-04-28T07:43:52.221Z,992.33
2016-04-28T07:44:52.224Z,992.34
2016-04-28T07:45:52.227Z,992.4
2016-04-28T07:46:52.246Z,992.33
2016-04-28T07:47:52.248Z,992.33
2016-04-28T07:48:52.250Z,992.35
2016-04-28T07:49:52.237Z,992.39
2016-04-28T07:50:52.459Z,992.48
2016-04-28T07:51:52.258Z,992.51
2016-04-28T07:52:52.245Z,992.49
2016-04-28T07:53:52.264Z,992.48
2016-04-28T07:54:52.282Z,992.46
2016-04-28T07:55:52.270Z,992.44
2016-04-28T07:56:52.288Z,992.51
2016-04-28T07:57:52.712Z,992.49
2016-04-28T07:58:52.481Z,992.47
2016-04-28T07:59:52.280Z,992.39
2016-04-28T08:00:52.283Z,992.4
2016-04-28T08:01:52.301Z,992.42
2016-04-28T08:02:52.288Z,992.45
2016-04-28T08:03:52.291Z,992.43
2016-04-28T08:04:52.293Z,992.47
2016-04-28T08:05:52.311Z,992.43
2016-04-28T08:06:52.314Z,992.48
2016-04-28T08:07:52.298Z,992.52
2016-04-28T08:08:52.300Z,992.43
2016-04-28T08:09:52.318Z,992.5
2016-04-28T08:10:52.321Z,992.52
2016-04-28T08:11:52.323Z,992.5
2016-04-28T08:12:52.326Z,992.49
2016-04-28T08:13:52.328Z,992.58
2016-04-28T08:14:52.332Z,992.58
2016-04-28T08:15:52.365Z,992.56
2016-04-28T08:16:52.337Z,992.53
2016-04-28T08:17:52.340Z,992.55
2016-04-28T08:18:52.359Z,992.66
2016-04-28T08:19:52.361Z,992.7
2016-04-28T08:20:52.363Z,992.74
2016-04-28T08:21:52.460Z,992.75
2016-04-28T08:22:52.369Z,992.74
2016-04-28T08:23:52.372Z,992.66
2016-04-28T08:24:52.374Z,992.63
2016-04-28T08:25:52.377Z,992.67
2016-04-28T08:26:52.395Z,992.64
2016-04-28T08:27:53.227Z,992.64
2016-04-28T08:28:52.401Z,992.64
2016-04-28T08:29:52.403Z,992.7
2016-04-28T08:30:52.406Z,992.66
2016-04-28T08:31:52.424Z,992.63
2016-04-28T08:32:52.411Z,992.67
2016-04-28T08:33:52.430Z,992.65
2016-04-28T08:34:52.448Z,992.69
2016-04-28T08:35:52.451Z,992.65
2016-04-28T08:36:52.454Z,992.59
2016-04-28T08:37:52.862Z,992.68
2016-04-28T08:38:52.459Z,992.76
2016-04-28T08:39:52.461Z,992.71
2016-04-28T08:40:52.465Z,992.72
2016-04-28T08:41:52.499Z,992.64
2016-04-28T08:42:52.892Z,992.7
2016-04-28T08:43:52.473Z,992.71
2016-04-28T08:44:52.678Z,992.72
2016-04-28T08:45:52.493Z,992.74
2016-04-28T08:46:52.496Z,992.79
2016-04-28T08:47:52.623Z,992.73
2016-04-28T08:48:52.501Z,992.73
2016-04-28T08:49:52.567Z,992.78
2016-04-28T08:51:52.509Z,992.77
2016-04-28T08:52:52.512Z,992.71
2016-04-28T08:53:52.530Z,992.71
2016-04-28T08:54:52.533Z,992.7
2016-04-28T08:55:52.536Z,992.77
2016-04-28T08:56:52.539Z,992.83
2016-04-28T08:57:52.557Z,992.79
2016-04-28T08:58:52.560Z,992.87
2016-04-28T08:59:52.562Z,992.8
2016-04-28T09:00:52.565Z,992.77
2016-04-28T09:01:52.568Z,992.71
2016-04-28T09:02:52.571Z,992.74
2016-04-28T09:03:52.589Z,992.79
2016-04-28T09:04:52.591Z,992.8
2016-04-28T09:05:52.594Z,992.75
2016-04-28T09:06:52.597Z,992.76
2016-04-28T09:07:52.615Z,992.69
2016-04-28T09:08:52.618Z,992.75
2016-04-28T09:09:52.635Z,992.82
2016-04-28T09:10:52.967Z,992.79
2016-04-28T09:11:53.313Z,992.82
2016-04-28T09:12:53.941Z,992.76
2016-04-28T09:13:52.663Z,992.65
2016-04-28T09:14:52.649Z,992.62
2016-04-28T09:16:52.889Z,992.71
2016-04-28T09:17:52.657Z,992.66
2016-04-28T09:18:52.770Z,992.64
2016-04-28T09:19:52.662Z,992.63
2016-04-28T09:20:52.681Z,992.7
2016-04-28T09:21:52.809Z,992.69
2016-04-28T09:22:53.092Z,992.68
2016-04-28T09:23:52.705Z,992.7
2016-04-28T09:24:52.708Z,992.63
2016-04-28T09:25:52.773Z,992.8
2016-04-28T09:26:53.400Z,992.83
2016-04-28T09:27:52.747Z,992.81
2016-04-28T09:28:52.733Z,992.94
2016-04-28T09:29:53.033Z,992.83
2016-04-28T09:30:52.988Z,992.82
2016-04-28T09:31:53.523Z,992.77
2016-04-28T09:32:52.777Z,992.76
2016-04-28T09:33:52.982Z,992.77
2016-04-28T09:34:52.952Z,992.78
2016-04-28T09:35:52.752Z,992.87
2016-04-28T09:36:53.849Z,992.87
2016-04-28T09:37:52.774Z,992.93
2016-04-28T09:38:52.776Z,992.95
2016-04-28T09:39:52.779Z,992.95
2016-04-28T09:40:52.781Z,992.93
2016-04-28T09:41:53.034Z,993.01
2016-04-28T09:42:52.788Z,993.06
2016-04-28T09:43:52.806Z,992.99
2016-04-28T09:44:52.809Z,992.99
2016-04-28T09:45:53.029Z,992.96
2016-04-28T09:46:52.845Z,992.87
2016-04-28T09:48:52.819Z,992.83
2016-04-28T09:49:52.853Z,992.82
2016-04-28T09:50:52.840Z,992.84
2016-04-28T09:51:52.842Z,992.99
2016-04-28T09:52:52.845Z,992.94
2016-04-28T09:53:53.067Z,992.99
2016-04-28T09:54:52.866Z,993.05
2016-04-28T09:55:52.869Z,993.01
2016-04-28T09:56:52.871Z,992.91
2016-04-28T09:57:53.093Z,992.9
2016-04-28T09:58:52.877Z,992.99
2016-04-28T09:59:52.895Z,992.97
2016-04-28T10:00:52.898Z,993.14
2016-04-28T10:01:52.900Z,993.1
2016-04-28T10:02:52.919Z,993.13
2016-04-28T10:03:53.125Z,993.17
2016-04-28T10:04:52.924Z,993.01
2016-04-28T10:05:52.927Z,992.87
2016-04-28T10:06:52.946Z,992.99
2016-04-28T10:07:52.949Z,993.06
2016-04-28T10:08:52.952Z,993.04
2016-04-28T10:09:52.969Z,993.04
2016-04-28T10:10:52.988Z,993.12
2016-04-28T10:11:52.975Z,993.11
2016-04-28T10:12:53.226Z,993.06
2016-04-28T10:13:52.995Z,992.97
2016-04-28T10:14:53.030Z,993
2016-04-28T10:15:53.454Z,993.03
2016-04-28T10:16:53.019Z,993
2016-04-28T10:17:53.053Z,992.91
2016-04-28T10:20:53.077Z,993.07
2016-04-28T10:21:53.079Z,993.09
2016-04-28T10:22:53.129Z,993.05
2016-04-28T10:23:53.069Z,993.04
2016-04-28T10:24:53.088Z,993.11
2016-04-28T10:25:53.106Z,993.16
2016-04-28T10:26:53.109Z,993.18
2016-04-28T10:27:53.314Z,993.13
2016-04-28T10:28:53.114Z,993.07
2016-04-28T10:29:53.133Z,993.05
2016-04-28T10:30:53.135Z,993.05
2016-04-28T10:31:53.138Z,993.03
2016-04-28T10:32:53.156Z,992.91
2016-04-28T10:33:53.158Z,992.83
2016-04-28T10:34:53.161Z,992.78
2016-04-28T10:35:53.164Z,992.78
2016-04-28T10:36:53.183Z,992.78
2016-04-28T10:37:53.233Z,992.77
2016-04-28T10:38:53.187Z,992.7
2016-04-28T10:39:53.206Z,992.7
2016-04-28T10:40:53.209Z,992.64
2016-04-28T10:41:53.305Z,992.67
2016-04-28T10:42:53.229Z,992.68
2016-04-28T10:43:53.232Z,992.67
2016-04-28T10:44:53.470Z,992.71
2016-04-28T10:45:53.254Z,992.68
2016-04-28T10:46:53.257Z,992.7
2016-04-28T10:47:53.290Z,992.71
2016-04-28T10:48:53.277Z,992.73
2016-04-28T10:49:53.296Z,992.74
2016-04-28T10:50:53.720Z,992.77
2016-04-28T10:51:53.317Z,992.78
2016-04-28T10:52:53.537Z,992.72
2016-04-28T10:53:53.337Z,992.79
2016-04-28T10:54:53.340Z,992.75
2016-04-28T10:55:53.531Z,992.74
2016-04-28T10:56:53.377Z,992.84
2016-04-28T10:58:53.351Z,992.85
2016-04-28T10:59:53.385Z,992.81
2016-04-28T11:00:53.388Z,992.76
2016-04-28T11:02:53.378Z,992.76
2016-04-28T11:03:53.380Z,992.83
2016-04-28T11:04:53.789Z,992.82
2016-04-28T11:06:53.638Z,992.86
2016-04-28T11:07:53.610Z,992.91
2016-04-28T11:08:53.440Z,992.89
2016-04-28T11:09:53.427Z,992.85
2016-04-28T11:10:53.430Z,992.91
2016-04-28T11:11:53.480Z,993
2016-04-28T11:12:53.529Z,993.08
2016-04-28T11:13:53.454Z,993.08
2016-04-28T11:14:53.457Z,992.98
2016-04-28T11:15:53.459Z,992.81
2016-04-28T11:16:53.462Z,992.74
2016-04-28T11:17:53.465Z,992.74
2016-04-28T11:18:53.482Z,992.68
2016-04-28T11:19:53.485Z,992.67
2016-04-28T11:20:53.497Z,992.6
2016-04-28T11:21:53.501Z,992.62
2016-04-28T11:22:53.504Z,992.61
2016-04-28T11:23:53.522Z,992.71
2016-04-28T11:24:53.525Z,992.74
2016-04-28T11:25:53.527Z,992.81
2016-04-28T11:26:53.874Z,992.76
2016-04-28T11:27:53.548Z,992.84
2016-04-28T11:28:53.550Z,992.97
2016-04-28T11:29:53.600Z,992.97
2016-04-28T11:30:53.571Z,993
2016-04-28T11:31:53.575Z,993.12
2016-04-28T11:32:53.578Z,993.11
2016-04-28T11:33:53.596Z,993.04
2016-04-28T11:34:53.582Z,992.95
2016-04-28T11:35:53.585Z,992.86
2016-04-28T11:36:53.603Z,992.77
2016-04-28T11:37:53.606Z,992.72
2016-04-28T11:38:53.609Z,992.66
2016-04-28T11:39:53.862Z,992.66
2016-04-28T11:40:53.630Z,992.71
2016-04-28T11:41:53.632Z,992.72
2016-04-28T11:42:53.979Z,992.67
2016-04-28T11:43:53.716Z,992.65
2016-04-28T11:44:53.657Z,992.67
2016-04-28T11:45:53.659Z,992.78
2016-04-28T11:46:53.693Z,992.85
2016-04-28T11:47:53.712Z,992.83
2016-04-28T11:48:53.683Z,992.97
2016-04-28T11:49:53.701Z,993
2016-04-28T11:50:53.767Z,992.95
2016-04-28T11:51:53.707Z,993
2016-04-28T11:52:53.725Z,993.04
2016-04-28T11:53:53.727Z,993.11
2016-04-28T11:54:53.777Z,993.11
2016-04-28T11:55:53.748Z,993.13
2016-04-28T11:56:53.767Z,993.04
2016-04-28T11:57:53.989Z,992.87
2016-04-28T11:58:53.772Z,992.8
2016-04-28T12:00:53.778Z,992.72
2016-04-28T12:01:53.983Z,992.76
2016-04-28T12:02:54.033Z,992.8
2016-04-28T12:03:53.832Z,992.73
2016-04-28T12:04:53.835Z,992.79
2016-04-28T12:05:53.822Z,992.82
2016-04-28T12:09:53.864Z,992.96
2016-04-28T12:10:53.867Z,993.04
2016-04-28T12:11:53.885Z,992.98
2016-04-28T12:12:53.982Z,992.86
2016-04-28T12:13:53.890Z,992.95
2016-04-28T12:14:53.909Z,992.83
2016-04-28T12:15:53.912Z,992.82
2016-04-28T12:16:53.915Z,992.73
2016-04-28T12:17:53.932Z,992.75
2016-04-28T12:18:53.935Z,992.75
2016-04-28T12:19:53.954Z,992.73
2016-04-28T12:20:53.957Z,992.66
2016-04-28T12:21:53.975Z,992.69
2016-04-28T12:22:54.181Z,992.76
2016-04-28T12:23:53.995Z,992.74
2016-04-28T12:24:53.998Z,992.69
2016-04-28T12:25:54.203Z,992.75
2016-04-28T12:26:54.019Z,992.69
2016-04-28T12:27:54.053Z,992.68
2016-04-28T12:28:54.275Z,992.71
2016-04-28T12:29:54.059Z,992.72
2016-04-28T12:30:54.077Z,992.69
2016-04-28T12:31:54.095Z,992.66
2016-04-28T12:32:54.083Z,992.65
2016-04-28T12:33:54.101Z,992.61
2016-04-28T12:34:54.087Z,992.68
2016-04-28T12:35:54.105Z,992.71
2016-04-28T12:36:54.108Z,992.73
2016-04-28T12:37:54.111Z,992.64
2016-04-28T12:38:54.130Z,992.67
2016-04-28T12:39:54.180Z,992.68
2016-04-28T12:40:54.135Z,992.67
2016-04-28T12:41:54.169Z,992.71
2016-04-28T12:42:54.547Z,992.8
2016-04-28T12:43:54.191Z,992.81
2016-04-28T12:44:54.176Z,992.73
2016-04-28T12:45:54.195Z,992.76
2016-04-28T12:46:54.198Z,992.71
2016-04-28T12:47:54.232Z,992.77
2016-04-28T12:48:54.219Z,992.82
2016-04-28T12:49:54.237Z,992.77
2016-04-28T12:50:54.240Z,992.87
2016-04-28T12:51:54.274Z,992.82
2016-04-28T12:52:54.292Z,992.74
2016-04-28T12:53:54.264Z,992.62